Hlavní strana
METAR-TAF:

METAR-TAF

Letiště :

Dare County Regional Airport

Manteo, Severní Karolína, Spojené státy americké

zeměpisná šířka: 35-55N, zeměpisná délka: 075-42W, výška: 4 m

Aktuální stav počasí

Zpráva byla vytvořena před 27 minutami, v 12:15 UTC
Bezvětří
Teplota 23°C
Vlhkost vzduchu 94%
Tlak 1008 hPa
Viditelnost: 8.0 km
Polojasno ve výšce 500 ft
Polojasno ve výšce 1100 ft
Zataženo ve výšce 1900 ft
déšť

METAR: KMQI 211215Z AUTO 00000KT 5SM RA SCT005 SCT011 OVC019 23/22 A2976 RMK AO2 P0013 T02280223

Čas: 08:42 (12:42 UTC)


TAF: chybějící

Stav a předpovědi počasí z více než 4 000 letišť (zprávy METAR a TAF).

Červené a žluté tečky na mapě představují dostupné meteorologické stanice.

Když kurzor umístíte na tečku, zobrazí se název stanice.

Pak kliknutím zobrazíte stav a předpověď počasí.

Chcete-li změnit mapu, kliknutím na zelené tlačítko se znaménkem +mapu přiblížíte, kliknutím na zelené tlačítko se znaménkem – mapu oddálíte a kliknutím na zelené šipky přejdete na sousední mapy.


METAR-TAF: